Wilmington, DE (19806)

7:06 AM EDT on May 27, 2015 (GMT -0400)
The Highlands | | Change Station
CLOSE
Current Station
Personal Weather Station
Location: Wilmington, DE
Elevation: 207 ft
Nearby Weather Stations

Elev 207 ft 39.76 °N, 75.57 °W | Updated 5 seconds ago

Overcast
Overcast
72.1 °F
Feels Like 72.1 °F
N
0.0
Wind Variable Wind from SE
Gusts 0.0 mph

Today
High -- | Low -- °F
--% Chance of Precip.
Yesterday
High -- | Low -- °F
Precip. -- in
5:38 AM 8:20 PM
Waxing Gibbous, 66% visible
Pressure 30.17 in
Visibility 10.0 miles
Clouds Overcast 1500 ft
Dew Point 69 °F
Humidity 89%
Rainfall 0.00 in
Snow Depth Not available.
UV 1.0 out of 12
Pollen 9.10 out of 12
Air Quality Not available.
Flu Activity Sporadic
METAR KILG 271051Z 19008KT 10SM OVC015 22/20 A3017 RMK AO2 SLP216 T02220200

More Conditions Fewer Conditions

Pressure 30.17 in
Visibility 10.0 miles
Clouds Overcast 1500 ft
Dew Point 69 °F
Humidity 89%
Rainfall 0.00 in
Snow Depth Not available.
UV 1.0 out of 12
Pollen 9.10 out of 12
Air Quality Not available.
Flu Activity Sporadic
METAR KILG 271051Z 19008KT 10SM OVC015 22/20 A3017 RMK AO2 SLP216 T02220200

More Conditions Fewer Conditions

10-Day Weather Forecast

Almanac

Astronomy

May. 27, 2015 Rise Set
Actual Time
Civil Twilight
Nautical Twilight
Astronomical Twilight
Moon
Length of Visible Light
Length of Day
Tomorrow will be .
, % of the Moon is Illuminated

Today's Extremes

State Highs State Lows

Community

WunderPhotos

Upload Photos

1,824,637 photos uploaded!

WunderBlogs® & News

Nearby

Air Quality

  Air Quality AQ Index Pollutant
Not available.

Snow Depth

Station Depth Elevation

Earthquake Activity

City Distance Mag. Time & Date
Minimum magnitude displayed is 2.5.

Coastal Water Temperatures

Place Temperature

Stations

Nearby Weather Stations

Station Location Temp. Windchill Dew Point Humidity Wind Precip. Elev Updated Type